地図

経路データ

SID SEASON NUMBER BASIN SUBBASIN NAME ISO_TIME NATURE LAT LON WMO_WIND WMO_PRES WMO_AGENCY TRACK_TYPE DIST2LAND LANDFALL IFLAG USA_AGENCY USA_ATCF_ID USA_LAT USA_LON USA_RECORD USA_STATUS USA_WIND USA_PRES USA_SSHS USA_R34_NE USA_R34_SE USA_R34_SW USA_R34_NW USA_R50_NE USA_R50_SE USA_R50_SW USA_R50_NW USA_R64_NE USA_R64_SE USA_R64_SW USA_R64_NW USA_POCI USA_ROCI USA_RMW USA_EYE TOKYO_LAT TOKYO_LON TOKYO_GRADE TOKYO_WIND TOKYO_PRES TOKYO_R50_DIR TOKYO_R50_LONG TOKYO_R50_SHORT TOKYO_R30_DIR TOKYO_R30_LONG TOKYO_R30_SHORT TOKYO_LAND CMA_LAT CMA_LON CMA_CAT CMA_WIND CMA_PRES HKO_LAT HKO_LON HKO_CAT HKO_WIND HKO_PRES NEWDELHI_LAT NEWDELHI_LON NEWDELHI_GRADE NEWDELHI_WIND NEWDELHI_PRES NEWDELHI_CI NEWDELHI_DP NEWDELHI_POCI REUNION_LAT REUNION_LON REUNION_TYPE REUNION_WIND REUNION_PRES REUNION_TNUM REUNION_CI REUNION_RMW REUNION_R34_NE REUNION_R34_SE REUNION_R34_SW REUNION_R34_NW REUNION_R50_NE REUNION_R50_SE REUNION_R50_SW REUNION_R50_NW REUNION_R64_NE REUNION_R64_SE REUNION_R64_SW REUNION_R64_NW BOM_LAT BOM_LON BOM_TYPE BOM_WIND BOM_PRES BOM_TNUM BOM_CI BOM_RMW BOM_R34_NE BOM_R34_SE BOM_R34_SW BOM_R34_NW BOM_R50_NE BOM_R50_SE BOM_R50_SW BOM_R50_NW BOM_R64_NE BOM_R64_SE BOM_R64_SW BOM_R64_NW BOM_ROCI BOM_POCI BOM_EYE BOM_POS_METHOD BOM_PRES_METHOD NADI_LAT NADI_LON NADI_CAT NADI_WIND NADI_PRES WELLINGTON_LAT WELLINGTON_LON WELLINGTON_WIND WELLINGTON_PRES DS824_LAT DS824_LON DS824_STAGE DS824_WIND DS824_PRES TD9636_LAT TD9636_LON TD9636_STAGE TD9636_WIND TD9636_PRES TD9635_LAT TD9635_LON TD9635_WIND TD9635_PRES TD9635_ROCI NEUMANN_LAT NEUMANN_LON NEUMANN_CLASS NEUMANN_WIND NEUMANN_PRES MLC_LAT MLC_LON MLC_CLASS MLC_WIND MLC_PRES USA_GUST BOM_GUST BOM_GUST_PER REUNION_GUST REUNION_GUST_PER USA_SEAHGT USA_SEARAD_NE USA_SEARAD_SE USA_SEARAD_SW USA_SEARAD_NW STORM_SPEED STORM_DIR
2017008N08128 2017 1 WP MM NOT_NAMED 2017-01-07 12:00:00 NR 7.90000 127.800 main 134 125 O_____________ jtwc_wp WP012017 7.90000 127.800 DB 20 1006 -3 1005 160 40 6 329
2017008N08128 2017 1 WP MM NOT_NAMED 2017-01-07 15:00:00 NR 8.13752 127.655 main 129 119 P_____________ WP012017 8.13752 127.655 DB 20 1006 -3 1005 160 40 6 329
2017008N08128 2017 1 WP MM NOT_NAMED 2017-01-07 18:00:00 NR 8.40000 127.500 main 121 108 O_____________ jtwc_wp WP012017 8.40000 127.500 DB 20 1006 -3 1005 160 40 7 330
2017008N08128 2017 1 WP MM NOT_NAMED 2017-01-07 21:00:00 NR 8.69997 127.322 main 108 90 P_____________ WP012017 8.69997 127.322 DB 22 1004 -3 1005 160 40 7 327
2017008N08128 2017 1 WP MM NOT_NAMED 2017-01-08 00:00:00 TS 9.00000 127.100 main 90 65 O_____________ jtwc_wp WP012017 9.00000 127.100 TD 25 1003 -1 1006 160 40 35 8 319
2017008N08128 2017 1 WP MM NOT_NAMED 2017-01-08 03:00:00 TS 9.27251 126.815 main 66 47 P_____________ WP012017 9.27251 126.815 TD 25 1003 -1 1005 145 40 8 310
2017008N08128 2017 1 WP MM NOT_NAMED 2017-01-08 06:00:00 TS 9.52000 126.480 main 47 31 O__O__________ jtwc_wp WP012017 9.50000 126.500 TD 25 1003 -1 1005 130 40 9.60000 126.400 TD 25 1000 7 304
2017008N08128 2017 1 WP MM NOT_NAMED 2017-01-08 09:00:00 TS 9.68081 126.191 main 31 22 P__P__________ WP012017 9.67249 126.192 TD 27 1002 -1 1005 145 40 9.69745 126.187 TD 25 1000 6 296
2017008N08128 2017 1 WP MM NOT_NAMED 2017-01-08 12:00:00 TS 9.80000 125.900 main 31 22 O__O__________ jtwc_wp WP012017 9.80000 125.900 TD 30 1001 -1 1006 160 40 9.80000 125.900 TD 25 1000 7 290
2017008N08128 2017 1 WP MM NOT_NAMED 2017-01-08 15:00:00 TS 9.90753 125.571 main 22 22 P__P__________ WP012017 9.90746 125.642 TD 30 1000 -1 1005 145 40 9.90759 125.500 TD 25 1000 7 287
2017008N08128 2017 1 WP MM NOT_NAMED 2017-01-08 18:00:00 TS 10.0000 125.250 main 31 0 O__O__________ jtwc_wp WP012017 10.0000 125.400 TD 30 1000 -1 1005 130 40 10.0000 125.100 TD 25 1000 6 287
2017008N08128 2017 1 WP MM NOT_NAMED 2017-01-08 21:00:00 TS 10.0824 124.996 main 0 0 P__P__________ WP012017 10.1074 125.180 TD 27 1002 -1 1005 120 40 10.0574 124.812 TD 25 1001 5 287
2017008N08128 2017 1 WP MM NOT_NAMED 2017-01-09 00:00:00 TS 10.1500 124.750 main 0 0 O__O__________ jtwc_wp WP012017 10.2000 124.900 TD 25 1004 -1 1006 110 40 10.1000 124.600 TD 25 1002 5 288
2017008N08128 2017 1 WP MM NOT_NAMED 2017-01-09 03:00:00 TS 10.2412 124.491 main 15 15 P__P__________ WP012017 10.2875 124.495 TD 22 1004 -1 1006 115 40 10.1948 124.488 TD 25 1002 6 280
2017008N08128 2017 1 WP MM NOT_NAMED 2017-01-09 06:00:00 DS 10.2500 124.150 main 22 0 O__O__________ jtwc_wp WP012017 10.3000 124.000 WV 20 1004 -3 1006 120 40 10.2000 124.300 TD 25 1002 8 260
2017008N08128 2017 1 WP MM NOT_NAMED 2017-01-09 09:00:00 DS 10.1026 123.651 main 0 0 P__P__________ WP012017 10.2175 123.450 WV 20 1004 -3 1006 120 40 9.98760 123.852 TD 25 1002 11 250
2017008N08128 2017 1 WP MM NOT_NAMED 2017-01-09 12:00:00 DS 9.87143 123.071 main 0 0 O__O__________ jtwc_wp WP012017 10.0000 122.900 WV 20 1005 -3 1007 120 40 9.70000 123.300 TD 25 1002 12 245
2017008N08128 2017 1 WP MM NOT_NAMED 2017-01-09 15:00:00 DS 9.58831 122.536 main 0 0 P__P__________ WP012017 9.64495 122.412 WV 20 1005 -3 1007 120 40 9.47504 122.783 TD 25 1002 12 237
2017008N08128 2017 1 WP MM NOT_NAMED 2017-01-09 18:00:00 DS 9.22000 122.060 main 62 62 O__O__________ jtwc_wp WP012017 9.20000 122.000 WV 20 1005 -3 1007 120 40 9.30000 122.300 TD 25 1002 12 223
2017008N08128 2017 1 WP MM NOT_NAMED 2017-01-09 21:00:00 DS 8.71983 121.708 main 95 86 P_____________ WP012017 8.71983 121.708 WV 20 1005 -3 1007 120 40 TD 11 215
2017008N08128 2017 1 WP MM NOT_NAMED 2017-01-10 00:00:00 DS 8.30000 121.400 main 94 94 O_____________ jtwc_wp WP012017 8.30000 121.400 WV 20 1005 -3 1007 120 40 11 229
2017008N08128 2017 1 WP MM NOT_NAMED 2017-01-10 03:00:00 DS 8.02511 120.907 main 136 136 P_____________ WP012017 8.02511 120.907 WV 20 1005 -3 1007 120 40 11 248
2017008N08128 2017 1 WP MM NOT_NAMED 2017-01-10 06:00:00 DS 7.90000 120.400 main 188 188 O_____________ jtwc_wp WP012017 7.90000 120.400 WV 20 1006 -3 1008 120 40 9 261
2017008N08128 2017 1 WP MM NOT_NAMED 2017-01-10 09:00:00 DS 7.88987 120.043 main 228 204 P_____________ WP012017 7.88987 120.043 WV 20 1006 -3 1008 120 40 7 278
2017008N08128 2017 1 WP MM NOT_NAMED 2017-01-10 12:00:00 DS 8.00000 119.700 main 204 165 O_____________ jtwc_wp WP012017 8.00000 119.700 WV 20 1007 -3 1009 120 40 8 289
2017008N08128 2017 1 WP MM NOT_NAMED 2017-01-10 15:00:00 DS 8.14745 119.280 main 165 104 P_____________ WP012017 8.14745 119.280 WV 20 1007 -3 1009 120 40 10 294
2017008N08128 2017 1 WP MM NOT_NAMED 2017-01-10 18:00:00 DS 8.40000 118.800 main 104 34 O_____________ jtwc_wp WP012017 8.40000 118.800 WV 20 1007 -3 1009 120 40 12 303
2017008N08128 2017 1 WP MM NOT_NAMED 2017-01-10 21:00:00 DS 8.79995 118.273 main 34 0 P_____________ WP012017 8.79995 118.273 WV 20 1007 -3 1009 120 40 14 306
2017008N08128 2017 1 WP MM NOT_NAMED 2017-01-11 00:00:00 DS 9.20000 117.700 main 10 10 O_____________ jtwc_wp WP012017 9.20000 117.700 WV 20 1007 -3 1009 120 40 13 299
2017008N08128 2017 1 WP MM NOT_NAMED 2017-01-11 03:00:00 DS 9.43743 117.107 main 70 70 P_____________ WP012017 9.43743 117.107 WV 20 1006 -3 13 289
2017008N08128 2017 1 WP MM NOT_NAMED 2017-01-11 06:00:00 DS 9.60000 116.500 main 134 134 O_____________ jtwc_wp WP012017 9.60000 116.500 WV 20 1006 -3 12 285
2017008N08128 2017 1 WP MM NOT_NAMED 2017-01-11 09:00:00 DS 9.75739 115.900 main 202 202 P_____________ WP012017 9.75739 115.900 WV 20 1006 -3 12 284
2017008N08128 2017 1 WP MM NOT_NAMED 2017-01-11 12:00:00 DS 9.90000 115.300 main 263 263 O_____________ jtwc_wp WP012017 9.90000 115.300 WV 20 1007 -3 12 284
2017008N08128 2017 1 WP MM NOT_NAMED 2017-01-11 15:00:00 DS 10.0500 114.677 main 331 331 P_____________ WP012017 10.0500 114.677 WV 20 1007 -3 12 284
2017008N08128 2017 1 WP MM NOT_NAMED 2017-01-11 18:00:00 DS 10.2000 114.100 main 394 394 O_____________ jtwc_wp WP012017 10.2000 114.100 WV 20 1007 -3 11 286
2017008N08128 2017 1 WP MM NOT_NAMED 2017-01-11 21:00:00 DS 10.3499 113.612 main 448 448 P_____________ WP012017 10.3499 113.612 WV 20 1007 -3 9 289
2017008N08128 2017 1 WP MM NOT_NAMED 2017-01-12 00:00:00 DS 10.5000 113.200 main 453 404 O_____________ jtwc_wp WP012017 10.5000 113.200 WV 20 1007 -3 9 292
2017008N08128 2017 1 WP MM NOT_NAMED 2017-01-12 03:00:00 DS 10.6875 112.768 main 404 370 P_____________ WP012017 10.6875 112.768 WV 20 1006 -3 8 294
2017008N08128 2017 1 WP MM NOT_NAMED 2017-01-12 06:00:00 NR 10.8000 112.500 main 370 370 O_____________ jtwc_wp WP012017 10.8000 112.500 DB 20 1006 -3 1008 20 2 275
2017008N08128 2017 1 WP MM NOT_NAMED 2017-01-12 09:00:00 NR 10.7075 112.555 main 384 384 P_____________ WP012017 10.7075 112.555 DB 20 1006 -3 1008 20 3 135
2017008N08128 2017 1 WP MM NOT_NAMED 2017-01-12 12:00:00 NR 10.6000 112.700 main 398 394 O_____________ jtwc_wp WP012017 10.6000 112.700 DB 20 1007 -3 1008 100 20 1 107
2017008N08128 2017 1 WP MM NOT_NAMED 2017-01-12 15:00:00 NR 10.6700 112.673 main 394 380 P_____________ WP012017 10.6700 112.673 DB 20 1007 -3 1008 100 30 2 333
2017008N08128 2017 1 WP MM NOT_NAMED 2017-01-12 18:00:00 NR 10.8000 112.600 main 380 376 O_____________ jtwc_wp WP012017 10.8000 112.600 DB 20 1007 -3 1008 100 40 2 334
2017008N08128 2017 1 WP MM NOT_NAMED 2017-01-12 21:00:00 NR 10.8925 112.565 main 376 363 P_____________ WP012017 10.8925 112.565 DB 20 1007 -3 1008 100 40 2 333
2017008N08128 2017 1 WP MM NOT_NAMED 2017-01-13 00:00:00 NR 11.0000 112.500 main 363 346 O_____________ jtwc_wp WP012017 11.0000 112.500 DB 20 1007 -3 1008 100 40 4 327
2017008N08128 2017 1 WP MM NOT_NAMED 2017-01-13 03:00:00 NR 11.1950 112.358 main 346 323 P_____________ WP012017 11.1950 112.358 DB 20 1007 -3 1008 100 40 4 316
2017008N08128 2017 1 WP MM NOT_NAMED 2017-01-13 06:00:00 NR 11.3000 112.200 main 323 312 O_____________ jtwc_wp WP012017 11.3000 112.200 DB 20 1007 -3 1008 100 40 2 260
2017008N08128 2017 1 WP MM NOT_NAMED 2017-01-13 09:00:00 NR 11.1525 112.107 main 315 311 P_____________ WP012017 11.1525 112.107 DB 20 1006 -3 1008 100 40 4 206
2017008N08128 2017 1 WP MM NOT_NAMED 2017-01-13 12:00:00 NR 10.9000 112.000 main 315 304 O_____________ jtwc_wp WP012017 10.9000 112.000 DB 20 1006 -3 1008 100 40 6 212
2017008N08128 2017 1 WP MM NOT_NAMED 2017-01-13 15:00:00 NR 10.6850 111.815 main 304 294 P_____________ WP012017 10.6850 111.815 DB 22 1005 -3 1008 110 40 6 225
2017008N08128 2017 1 WP MM NOT_NAMED 2017-01-13 18:00:00 TS 10.5000 111.600 main 294 280 O_____________ jtwc_wp WP012017 10.5000 111.600 TD 25 1004 -1 1008 120 40 5 235
2017008N08128 2017 1 WP MM NOT_NAMED 2017-01-13 21:00:00 TS 10.3925 111.385 main 280 268 P_____________ WP012017 10.3925 111.385 TD 25 1004 -1 1007 135 40 4 243
2017008N08128 2017 1 WP MM NOT_NAMED 2017-01-14 00:00:00 TS 10.3000 111.200 main 268 265 O_____________ jtwc_wp WP012017 10.3000 111.200 TD 25 1004 -1 1007 150 40 4 232
2017008N08128 2017 1 WP MM NOT_NAMED 2017-01-14 03:00:00 TS 10.1650 111.093 main 265 262 P_____________ WP012017 10.1650 111.093 TD 25 1004 -1 1007 150 40 4 213
2017008N08128 2017 1 WP MM NOT_NAMED 2017-01-14 06:00:00 TS 10.0000 111.000 main 269 267 O_____________ jtwc_wp WP012017 10.0000 111.000 TD 25 1004 -1 1008 150 40 4 209
2017008N08128 2017 1 WP MM NOT_NAMED 2017-01-14 09:00:00 TS 9.79244 110.888 main 274 273 P_____________ WP012017 9.79244 110.888 TD 25 1004 -1 1008 150 40 5 216
2017008N08128 2017 1 WP MM NOT_NAMED 2017-01-14 12:00:00 TS 9.60000 110.700 main 274 262 O_____________ jtwc_wp WP012017 9.60000 110.700 TD 25 1004 -1 1008 150 40 6 238
2017008N08128 2017 1 WP MM NOT_NAMED 2017-01-14 15:00:00 TS 9.46262 110.342 main 255 246 P_____________ WP012017 9.46262 110.342 TD 22 1005 -1 1008 150 40 7 254
2017008N08128 2017 1 WP MM NOT_NAMED 2017-01-14 18:00:00 NR 9.40000 110.000 main 246 240 O_____________ jtwc_wp WP012017 9.40000 110.000 DB 20 1007 -3 1008 150 40 5 266
2017008N08128 2017 1 WP MM NOT_NAMED 2017-01-14 21:00:00 NR 9.42742 109.878 main 240 225 P_____________ WP012017 9.42742 109.878 DB 17 1008 -3 1007 150 40 2 297
2017008N08128 2017 1 WP MM NOT_NAMED 2017-01-15 00:00:00 NR 9.50000 109.800 main 225 203 O_____________ jtwc_wp WP012017 9.50000 109.800 DB 15 1010 -3 1006 150 40 3 298
2017008N08128 2017 1 WP MM NOT_NAMED 2017-01-15 03:00:00 NR 9.56501 109.615 main 203 188 P_____________ WP012017 9.56501 109.615 DB 15 1010 -3 1006 150 50 4 284
2017008N08128 2017 1 WP MM NOT_NAMED 2017-01-15 06:00:00 NR 9.60000 109.400 main 188 175 O_____________ jtwc_wp WP012017 9.60000 109.400 DB 15 1010 -3 1006 150 60 4 271
2017008N08128 2017 1 WP MM NOT_NAMED 2017-01-15 09:00:00 NR 9.57244 109.223 main 175 173 P_____________ WP012017 9.57244 109.223 DB 15 1010 -3 1006 150 60 4 256
2017008N08128 2017 1 WP MM NOT_NAMED 2017-01-15 12:00:00 NR 9.50000 109.000 main 173 160 O_____________ jtwc_wp WP012017 9.50000 109.000 DB 15 1010 -3 1006 150 60 6 253
2017008N08128 2017 1 WP MM NOT_NAMED 2017-01-15 15:00:00 NR 9.40750 108.680 main 164 155 P_____________ WP012017 9.40750 108.680 DB 15 1010 -3 1006 150 60 7 254
2017008N08128 2017 1 WP MM NOT_NAMED 2017-01-15 18:00:00 NR 9.30000 108.300 main 160 149 O_____________ jtwc_wp WP012017 9.30000 108.300 DB 15 1010 -3 1006 150 60 8 255
2017008N08128 2017 1 WP MM NOT_NAMED 2017-01-15 21:00:00 NR 9.19758 107.902 main 149 119 P_____________ WP012017 9.19758 107.902 DB 15 1010 -3 1006 150 57 8 256
2017008N08128 2017 1 WP MM NOT_NAMED 2017-01-16 00:00:00 NR 9.10000 107.500 main 119 O_____________ jtwc_wp WP012017 9.10000 107.500 DB 15 1010 -3 1006 150 55 8 256

デジタル台風データ・検索

IBTrACS Databaseについて

本データベースは、米国NOAAが公開する1842年以降の世界の熱帯低気圧のベストトラックデータアーカイブInternational Best Track Archive for Climate Stewardship (IBTrACS)を、ウェブで閲覧しやすい形式に変換したものです。

最終更新日:2021-12-01